createdAt,value
2019-05-25T00:00:28.397Z,3.93
2019-05-25T00:02:54.906Z,5.67
2019-05-25T00:05:21.008Z,4.20
2019-05-25T00:07:47.465Z,5.23
2019-05-25T00:10:14.231Z,4.50
2019-05-25T00:12:40.564Z,4.60
2019-05-25T00:15:08.124Z,3.90
2019-05-25T00:17:34.182Z,3.97
2019-05-25T00:20:00.222Z,4.50
2019-05-25T00:22:26.306Z,4.20
2019-05-25T00:24:52.356Z,4.67
2019-05-25T00:27:18.835Z,4.53
2019-05-25T00:29:45.253Z,4.07
2019-05-25T00:32:11.308Z,4.60
2019-05-25T00:34:37.393Z,4.50
2019-05-25T00:37:03.807Z,4.87
2019-05-25T00:39:30.192Z,4.20
2019-05-25T00:41:56.523Z,5.27
2019-05-25T00:44:23.056Z,4.87
2019-05-25T00:46:49.475Z,4.90
2019-05-25T00:49:15.565Z,4.63
2019-05-25T00:51:41.984Z,4.70
2019-05-25T00:54:08.326Z,3.97
2019-05-25T00:56:34.833Z,4.30
2019-05-25T00:59:00.876Z,4.30
2019-05-25T01:01:26.964Z,4.50
2019-05-25T01:03:53.476Z,4.77
2019-05-25T01:06:19.944Z,4.10
2019-05-25T01:08:46.252Z,5.03
2019-05-25T01:11:12.585Z,4.30
2019-05-25T01:13:39.045Z,4.57
2019-05-25T01:16:05.466Z,4.60
2019-05-25T01:18:31.557Z,4.70
2019-05-25T01:20:57.612Z,4.10
2019-05-25T01:23:24.087Z,4.43
2019-05-25T01:25:50.140Z,4.40
2019-05-25T01:28:16.487Z,3.70
2019-05-25T01:30:42.942Z,4.30
2019-05-25T01:33:09.371Z,4.37
2019-05-25T01:35:35.831Z,5.13
2019-05-25T01:38:01.924Z,4.47
2019-05-25T01:40:27.988Z,4.30
2019-05-25T01:42:54.445Z,4.70
2019-05-25T01:45:20.834Z,4.40
2019-05-25T01:47:47.226Z,4.50
2019-05-25T01:50:13.744Z,4.17
2019-05-25T01:52:39.833Z,4.80
2019-05-25T01:55:07.648Z,4.00
2019-05-25T01:57:34.068Z,3.87
2019-05-25T02:00:01.463Z,4.10
2019-05-25T02:02:27.766Z,4.30
2019-05-25T02:04:54.513Z,4.70
2019-05-25T02:07:20.936Z,4.30
2019-05-25T02:09:47.263Z,4.23
2019-05-25T02:12:13.793Z,4.37
2019-05-25T02:14:40.135Z,3.63
2019-05-25T02:17:06.181Z,3.93
2019-05-25T02:19:32.588Z,4.10
2019-05-25T02:21:59.005Z,4.37
2019-05-25T02:24:25.426Z,3.87
2019-05-25T02:26:51.561Z,4.30
2019-05-25T02:29:17.705Z,4.17
2019-05-25T02:31:43.892Z,4.07
2019-05-25T02:34:10.265Z,4.50
2019-05-25T02:36:36.354Z,4.70
2019-05-25T02:39:04.847Z,4.57
2019-05-25T02:41:31.976Z,4.60
2019-05-25T02:43:58.340Z,4.47
2019-05-25T02:46:25.096Z,4.40
2019-05-25T02:48:51.204Z,4.40
2019-05-25T02:51:17.348Z,4.67
2019-05-25T02:53:43.803Z,4.30
2019-05-25T02:56:09.848Z,4.40
2019-05-25T02:58:35.896Z,6.07
2019-05-25T03:01:03.484Z,4.60
2019-05-25T03:03:30.211Z,4.50
2019-05-25T03:05:56.406Z,5.00
2019-05-25T03:08:22.450Z,4.20
2019-05-25T03:10:50.372Z,4.73
2019-05-25T03:13:18.705Z,4.47
2019-05-25T03:15:45.204Z,5.20
2019-05-25T03:18:11.568Z,4.27
2019-05-25T03:20:37.684Z,4.23
2019-05-25T03:23:04.096Z,4.10
2019-05-25T03:25:30.185Z,3.97
2019-05-25T03:27:56.229Z,4.57
2019-05-25T03:30:34.277Z,3.93
2019-05-25T03:33:00.813Z,4.13
2019-05-25T03:35:27.805Z,4.73
2019-05-25T03:37:55.449Z,4.50
2019-05-25T03:40:21.908Z,4.30
2019-05-25T03:42:48.365Z,4.20
2019-05-25T03:45:14.834Z,4.23
2019-05-25T03:47:40.980Z,3.93
2019-05-25T03:50:08.333Z,4.60
2019-05-25T03:52:35.140Z,4.30
2019-05-25T03:55:01.240Z,4.10
2019-05-25T03:57:27.696Z,4.40
2019-05-25T03:59:54.431Z,4.47
2019-05-25T04:02:20.522Z,4.23
2019-05-25T04:04:46.888Z,4.03
2019-05-25T04:07:13.761Z,4.27
2019-05-25T04:09:39.888Z,4.40
2019-05-25T04:12:05.936Z,4.43
2019-05-25T04:14:32.025Z,4.30
2019-05-25T04:16:58.440Z,3.93
2019-05-25T04:19:24.516Z,4.37
2019-05-25T04:21:50.642Z,4.10
2019-05-25T04:24:17.017Z,4.10
2019-05-25T04:26:43.069Z,4.40
2019-05-25T04:29:09.485Z,4.70
2019-05-25T04:31:35.580Z,4.23
2019-05-25T04:34:01.638Z,3.30
2019-05-25T04:36:27.716Z,4.10
2019-05-25T04:38:54.198Z,3.97
2019-05-25T04:41:20.372Z,4.17
2019-05-25T04:43:46.420Z,4.47
2019-05-25T04:46:12.836Z,4.40
2019-05-25T04:48:39.291Z,4.37
2019-05-25T04:51:06.184Z,4.40
2019-05-25T04:53:32.639Z,4.23
2019-05-25T04:55:59.325Z,3.93
2019-05-25T04:58:25.412Z,3.87
2019-05-25T05:00:51.456Z,4.50
2019-05-25T05:03:17.912Z,4.40
2019-05-25T05:05:44.327Z,4.20
2019-05-25T05:08:10.788Z,4.27
2019-05-25T05:10:37.212Z,3.80
2019-05-25T05:13:03.515Z,4.37
2019-05-25T05:15:29.600Z,3.97
2019-05-25T05:17:55.693Z,4.60
2019-05-25T05:20:21.989Z,4.10
2019-05-25T05:22:48.459Z,3.73
2019-05-25T05:25:15.075Z,3.93
2019-05-25T05:27:41.122Z,4.03
2019-05-25T05:30:09.011Z,4.50
2019-05-25T05:32:35.057Z,3.73
2019-05-25T05:35:01.511Z,4.80
2019-05-25T05:37:29.371Z,4.00
2019-05-25T05:39:57.031Z,4.33
2019-05-25T05:42:26.436Z,4.60
2019-05-25T05:44:55.120Z,4.10
2019-05-25T05:47:23.500Z,4.10
2019-05-25T05:49:51.857Z,4.60
2019-05-25T05:52:21.244Z,4.30
2019-05-25T05:54:50.695Z,4.20
2019-05-25T05:57:16.784Z,4.30
2019-05-25T05:59:42.827Z,4.50
2019-05-25T06:02:09.245Z,4.30
2019-05-25T06:04:35.327Z,4.40
2019-05-25T06:07:01.380Z,4.80
2019-05-25T06:09:27.760Z,4.30
2019-05-25T06:11:54.604Z,4.33
2019-05-25T06:14:20.909Z,4.60
2019-05-25T06:16:46.997Z,4.47
2019-05-25T06:19:13.044Z,4.37
2019-05-25T06:21:39.500Z,4.50
2019-05-25T06:24:05.552Z,4.83
2019-05-25T06:26:32.372Z,4.60
2019-05-25T06:28:58.420Z,4.37
2019-05-25T06:31:24.882Z,4.57
2019-05-25T06:33:51.292Z,4.33
2019-05-25T06:36:17.340Z,4.70
2019-05-25T06:38:43.694Z,4.80
2019-05-25T06:41:10.442Z,4.30
2019-05-25T06:43:36.530Z,4.80
2019-05-25T06:46:03.749Z,4.17
2019-05-25T06:48:30.236Z,4.30
2019-05-25T06:50:56.360Z,4.20
2019-05-25T06:53:22.800Z,4.90
2019-05-25T06:55:49.544Z,4.70
2019-05-25T06:58:16.278Z,4.50
2019-05-25T07:00:44.670Z,4.97
2019-05-25T07:03:10.705Z,4.70
2019-05-25T07:05:37.107Z,4.20
2019-05-25T07:08:03.497Z,5.10
2019-05-25T07:10:30.280Z,4.23
2019-05-25T07:12:56.384Z,4.70
2019-05-25T07:15:23.043Z,4.70
2019-05-25T07:17:49.504Z,6.03
2019-05-25T07:20:16.839Z,4.17
2019-05-25T07:22:42.977Z,5.00
2019-05-25T07:25:10.000Z,4.90
2019-05-25T07:27:36.151Z,4.60
2019-05-25T07:30:04.920Z,4.57
2019-05-25T07:32:31.373Z,4.83
2019-05-25T07:34:57.460Z,4.20
2019-05-25T07:37:23.608Z,4.53
2019-05-25T07:39:49.705Z,4.80
2019-05-25T07:42:19.811Z,4.57
2019-05-25T07:44:44.408Z,4.50
2019-05-25T07:47:10.761Z,4.67
2019-05-25T07:49:37.089Z,4.10
2019-05-25T07:52:03.240Z,4.87
2019-05-25T07:54:29.953Z,4.27
2019-05-25T07:56:55.996Z,4.57
2019-05-25T07:59:22.044Z,4.93
2019-05-25T08:01:48.432Z,4.40
2019-05-25T08:04:14.760Z,5.03
2019-05-25T08:06:41.087Z,4.50
2019-05-25T08:09:07.543Z,4.73
2019-05-25T08:11:33.587Z,4.17
2019-05-25T08:13:59.676Z,4.17
2019-05-25T08:16:25.733Z,4.07
2019-05-25T08:18:52.180Z,4.47
2019-05-25T08:21:18.585Z,4.13
2019-05-25T08:23:45.003Z,4.10
2019-05-25T08:26:11.729Z,4.60
2019-05-25T08:28:37.778Z,4.40
2019-05-25T08:31:03.896Z,4.20
2019-05-25T08:33:30.308Z,4.50
2019-05-25T08:35:56.400Z,4.47
2019-05-25T08:38:22.764Z,4.37
2019-05-25T08:40:49.260Z,4.00
2019-05-25T08:43:15.635Z,3.83
2019-05-25T08:45:41.721Z,4.00
2019-05-25T08:48:08.085Z,3.63
2019-05-25T08:50:38.195Z,4.10
2019-05-25T08:53:03.024Z,4.37
2019-05-25T08:55:29.328Z,4.27
2019-05-25T08:57:55.655Z,4.70
2019-05-25T09:00:21.748Z,3.93
2019-05-25T09:02:48.112Z,3.73
2019-05-25T09:05:14.748Z,3.90
2019-05-25T09:07:41.165Z,4.77
2019-05-25T09:10:08.313Z,3.90
2019-05-25T09:12:34.401Z,3.77
2019-05-25T09:15:00.887Z,3.73
2019-05-25T09:17:26.972Z,4.10
2019-05-25T09:19:53.344Z,3.73
2019-05-25T09:22:19.673Z,4.10
2019-05-25T09:24:46.432Z,3.90
2019-05-25T09:27:12.906Z,4.03
2019-05-25T09:29:39.282Z,3.87
2019-05-25T09:32:07.196Z,3.70
2019-05-25T09:34:33.571Z,3.80
2019-05-25T09:36:59.910Z,3.53
2019-05-25T09:39:25.955Z,4.10
2019-05-25T09:41:52.077Z,4.00
2019-05-25T09:44:19.094Z,3.43
2019-05-25T09:46:46.050Z,3.40
2019-05-25T09:49:12.380Z,3.57
2019-05-25T09:51:39.212Z,3.77
2019-05-25T09:54:05.548Z,3.30
2019-05-25T09:56:32.028Z,3.77
2019-05-25T09:58:58.076Z,3.60
2019-05-25T10:01:24.127Z,3.93
2019-05-25T10:03:50.860Z,3.37
2019-05-25T10:06:17.307Z,3.63
2019-05-25T10:08:43.400Z,3.33
2019-05-25T10:11:09.824Z,3.50
2019-05-25T10:13:36.292Z,3.23
2019-05-25T10:16:02.489Z,3.67
2019-05-25T10:18:28.622Z,4.07
2019-05-25T10:20:54.707Z,3.97
2019-05-25T10:23:21.121Z,3.87
2019-05-25T10:25:47.171Z,3.60
2019-05-25T10:28:13.257Z,3.60
2019-05-25T10:30:39.573Z,3.57
2019-05-25T10:33:06.414Z,4.20
2019-05-25T10:35:32.456Z,4.27
2019-05-25T10:37:58.872Z,3.40
2019-05-25T10:40:25.300Z,3.70
2019-05-25T10:42:51.505Z,3.43
2019-05-25T10:45:18.227Z,3.23
2019-05-25T10:47:44.276Z,3.40
2019-05-25T10:50:11.101Z,3.90
2019-05-25T10:52:38.911Z,3.90
2019-05-25T10:55:07.271Z,3.87
2019-05-25T10:57:33.325Z,3.40
2019-05-25T10:59:59.405Z,3.63
2019-05-25T11:02:26.072Z,3.40
2019-05-25T11:04:52.488Z,3.63
2019-05-25T11:07:18.832Z,3.53
2019-05-25T11:09:45.252Z,3.80
2019-05-25T11:12:11.341Z,4.07
2019-05-25T11:14:37.400Z,3.37
2019-05-25T11:17:04.145Z,3.60
2019-05-25T11:19:30.293Z,3.70
2019-05-25T11:21:56.602Z,3.67
2019-05-25T11:24:22.680Z,3.57
2019-05-25T11:26:48.724Z,3.73
2019-05-25T11:29:15.175Z,3.50
2019-05-25T11:31:41.593Z,3.53
2019-05-25T11:34:07.931Z,3.70
2019-05-25T11:36:33.981Z,3.43
2019-05-25T11:39:00.284Z,3.30
2019-05-25T11:41:26.723Z,3.50
2019-05-25T11:43:52.773Z,3.23
2019-05-25T11:46:19.484Z,3.73
2019-05-25T11:48:45.569Z,3.07
2019-05-25T11:51:11.940Z,3.20
2019-05-25T11:53:38.308Z,3.83
2019-05-25T11:56:04.356Z,3.20
2019-05-25T11:58:30.720Z,3.23
2019-05-25T12:00:56.767Z,3.20
2019-05-25T12:03:23.077Z,3.33
2019-05-25T12:05:49.812Z,3.10
2019-05-25T12:08:16.144Z,3.20
2019-05-25T12:10:42.476Z,3.37
2019-05-25T12:13:08.629Z,3.10
2019-05-25T12:15:35.084Z,3.07
2019-05-25T12:18:01.136Z,2.70
2019-05-25T12:20:27.233Z,2.93
2019-05-25T12:22:53.402Z,3.03
2019-05-25T12:25:20.096Z,2.80
2019-05-25T12:27:49.148Z,3.97
2019-05-25T12:30:15.836Z,2.80
2019-05-25T12:32:42.208Z,3.20
2019-05-25T12:35:09.976Z,2.80
2019-05-25T12:37:36.398Z,3.03
2019-05-25T12:40:06.689Z,3.00
2019-05-25T12:42:33.605Z,3.07
2019-05-25T12:44:59.888Z,3.00
2019-05-25T12:47:26.021Z,2.63
2019-05-25T12:49:52.358Z,3.53
2019-05-25T12:52:18.687Z,3.10
2019-05-25T12:54:44.776Z,2.90
2019-05-25T12:57:11.143Z,3.10
2019-05-25T12:59:37.187Z,2.47
2019-05-25T13:02:03.735Z,2.87
2019-05-25T13:04:30.226Z,2.60
2019-05-25T13:06:56.362Z,2.93
2019-05-25T13:09:22.815Z,2.80
2019-05-25T13:11:49.233Z,2.80
2019-05-25T13:14:15.328Z,2.80
2019-05-25T13:16:41.381Z,2.60
2019-05-25T13:19:07.581Z,2.77
2019-05-25T13:21:34.047Z,3.07
2019-05-25T13:24:00.365Z,2.63
2019-05-25T13:26:26.455Z,2.73
2019-05-25T13:28:52.595Z,2.80
2019-05-25T13:31:18.936Z,3.47
2019-05-25T13:33:45.024Z,2.57
2019-05-25T13:36:11.440Z,3.30
2019-05-25T13:38:37.825Z,3.10
2019-05-25T13:41:04.875Z,2.90
2019-05-25T13:43:32.109Z,3.00
2019-05-25T13:45:58.520Z,3.10
2019-05-25T13:48:24.631Z,2.73
2019-05-25T13:50:51.009Z,2.80
2019-05-25T13:53:17.340Z,2.80
2019-05-25T13:55:43.812Z,2.77
2019-05-25T13:58:10.611Z,2.80
2019-05-25T14:00:36.660Z,3.17
2019-05-25T14:03:03.548Z,2.53
2019-05-25T14:05:29.598Z,2.43
2019-05-25T14:07:55.980Z,3.17
2019-05-25T14:10:22.151Z,2.80
2019-05-25T14:12:48.232Z,2.67
2019-05-25T14:15:14.730Z,2.90
2019-05-25T14:17:40.968Z,2.60
2019-05-25T14:20:08.564Z,3.10
2019-05-25T14:22:34.613Z,2.80
2019-05-25T14:25:00.696Z,3.00
2019-05-25T14:27:26.750Z,2.57
2019-05-25T14:29:52.840Z,2.60
2019-05-25T14:32:19.250Z,2.60
2019-05-25T14:34:45.296Z,2.67
2019-05-25T14:37:12.116Z,2.23
2019-05-25T14:39:38.164Z,2.93
2019-05-25T14:42:04.896Z,2.83
2019-05-25T14:44:31.060Z,3.10
2019-05-25T14:46:57.113Z,2.93
2019-05-25T14:49:23.544Z,2.50
2019-05-25T14:51:49.962Z,2.30
2019-05-25T14:54:16.299Z,2.60
2019-05-25T14:56:42.404Z,3.00
2019-05-25T14:59:08.860Z,2.87
2019-05-25T15:01:35.064Z,3.40
2019-05-25T15:04:02.216Z,2.67
2019-05-25T15:06:28.635Z,2.73
2019-05-25T15:08:54.729Z,3.00
2019-05-25T15:11:20.772Z,2.80
2019-05-25T15:13:46.864Z,2.37
2019-05-25T15:16:12.906Z,2.40
2019-05-25T15:18:39.342Z,3.00
2019-05-25T15:21:05.511Z,2.73
2019-05-25T15:23:31.852Z,2.70
2019-05-25T15:25:58.185Z,2.73
2019-05-25T15:28:24.232Z,2.90
2019-05-25T15:30:50.329Z,2.87
2019-05-25T15:33:16.744Z,2.47
2019-05-25T15:35:42.833Z,2.80
2019-05-25T15:38:09.227Z,2.40
2019-05-25T15:40:38.924Z,2.80
2019-05-25T15:43:04.233Z,2.60
2019-05-25T15:45:30.387Z,2.57
2019-05-25T15:47:56.429Z,2.70
2019-05-25T15:50:25.063Z,3.00
2019-05-25T15:52:51.184Z,2.90
2019-05-25T15:55:17.708Z,2.50
2019-05-25T15:57:43.759Z,2.40
2019-05-25T16:00:11.553Z,3.07
2019-05-25T16:02:37.961Z,2.90
2019-05-25T16:05:05.708Z,3.00
2019-05-25T16:07:35.845Z,2.93
2019-05-25T16:10:04.169Z,3.43
2019-05-25T16:12:30.250Z,3.03
2019-05-25T16:14:56.296Z,3.27
2019-05-25T16:17:24.208Z,3.03
2019-05-25T16:19:50.344Z,3.07
2019-05-25T16:22:16.403Z,3.10
2019-05-25T16:24:42.496Z,2.90
2019-05-25T16:27:08.540Z,3.30
2019-05-25T16:29:34.995Z,2.80
2019-05-25T16:32:01.167Z,2.80
2019-05-25T16:34:27.912Z,3.10
2019-05-25T16:36:54.044Z,3.00
2019-05-25T16:39:20.750Z,3.43
2019-05-25T16:41:47.159Z,2.83
2019-05-25T16:44:13.249Z,3.10
2019-05-25T16:46:39.380Z,2.80
2019-05-25T16:49:05.691Z,3.37
2019-05-25T16:51:31.780Z,2.97
2019-05-25T16:53:57.819Z,3.07
2019-05-25T16:56:24.820Z,3.10
2019-05-25T16:58:50.864Z,3.40
2019-05-25T17:01:18.148Z,3.40
2019-05-25T17:03:45.200Z,3.13
2019-05-25T17:06:11.346Z,2.97
2019-05-25T17:08:37.396Z,3.50
2019-05-25T17:11:03.456Z,3.50
2019-05-25T17:13:29.640Z,3.90
2019-05-25T17:15:55.690Z,3.60
2019-05-25T17:18:22.116Z,3.67
2019-05-25T17:20:48.191Z,3.50
2019-05-25T17:23:14.235Z,3.57
2019-05-25T17:25:40.693Z,3.57
2019-05-25T17:28:07.108Z,3.30
2019-05-25T17:30:35.468Z,3.60
2019-05-25T17:33:01.511Z,4.03
2019-05-25T17:35:27.970Z,3.37
2019-05-25T17:37:54.016Z,4.53
2019-05-25T17:40:20.771Z,3.60
2019-05-25T17:42:47.224Z,5.47
2019-05-25T17:45:14.348Z,3.23
2019-05-25T17:47:40.845Z,3.90
2019-05-25T17:50:08.262Z,3.20
2019-05-25T17:52:34.669Z,3.23
2019-05-25T17:55:00.773Z,3.87
2019-05-25T17:57:27.239Z,3.30
2019-05-25T17:59:53.287Z,3.00
2019-05-25T18:02:19.688Z,3.30
2019-05-25T18:04:46.012Z,3.10
2019-05-25T18:07:12.337Z,3.00
2019-05-25T18:09:38.669Z,3.70
2019-05-25T18:12:05.508Z,4.03
2019-05-25T18:14:31.842Z,2.77
2019-05-25T18:16:58.296Z,3.90
2019-05-25T18:19:24.367Z,3.17
2019-05-25T18:21:50.684Z,3.13
2019-05-25T18:24:16.775Z,3.77
2019-05-25T18:26:42.897Z,2.87
2019-05-25T18:29:08.990Z,3.30
2019-05-25T18:31:35.037Z,3.40
2019-05-25T18:34:01.181Z,3.43
2019-05-25T18:36:27.597Z,2.83
2019-05-25T18:38:54.095Z,3.10
2019-05-25T18:41:20.183Z,2.80
2019-05-25T18:43:46.600Z,3.63
2019-05-25T18:46:13.057Z,3.70
2019-05-25T18:48:39.848Z,3.00
2019-05-25T18:51:06.580Z,4.37
2019-05-25T18:53:32.776Z,4.47
2019-05-25T18:55:59.448Z,4.87
2019-05-25T18:58:25.781Z,2.97
2019-05-25T19:00:52.114Z,2.97
2019-05-25T19:03:18.542Z,3.13
2019-05-25T19:05:44.956Z,3.00
2019-05-25T19:08:11.108Z,2.80
2019-05-25T19:10:37.196Z,2.67
2019-05-25T19:13:03.780Z,4.70
2019-05-25T19:15:29.824Z,3.27
2019-05-25T19:17:56.214Z,3.70
2019-05-25T19:20:23.264Z,2.80
2019-05-25T19:22:50.000Z,3.17
2019-05-25T19:25:17.148Z,2.67
2019-05-25T19:27:43.238Z,3.27
2019-05-25T19:30:10.053Z,3.47
2019-05-25T19:32:36.104Z,3.37
2019-05-25T19:35:05.336Z,3.10
2019-05-25T19:37:31.387Z,2.97
2019-05-25T19:39:57.432Z,3.27
2019-05-25T19:42:23.516Z,2.90
2019-05-25T19:44:49.568Z,2.53
2019-05-25T19:47:16.030Z,2.97
2019-05-25T19:49:42.396Z,3.40
2019-05-25T19:52:08.492Z,2.77
2019-05-25T19:54:34.528Z,2.77
2019-05-25T19:57:01.381Z,3.43
2019-05-25T19:59:27.477Z,2.90
2019-05-25T20:01:53.900Z,2.73
2019-05-25T20:04:19.984Z,2.97
2019-05-25T20:06:46.404Z,2.40
2019-05-25T20:09:12.448Z,2.80
2019-05-25T20:11:38.848Z,3.10
2019-05-25T20:14:04.941Z,3.50
2019-05-25T20:16:30.994Z,3.37
2019-05-25T20:18:57.428Z,2.63
2019-05-25T20:21:23.760Z,2.97
2019-05-25T20:23:50.109Z,2.50
2019-05-25T20:26:16.527Z,3.37
2019-05-25T20:28:42.952Z,2.90
2019-05-25T20:31:09.828Z,3.07
2019-05-25T20:33:36.125Z,3.53
2019-05-25T20:36:02.544Z,3.20
2019-05-25T20:38:28.637Z,3.10
2019-05-25T20:40:54.679Z,3.17
2019-05-25T20:43:20.729Z,2.80
2019-05-25T20:45:47.469Z,3.00
2019-05-25T20:48:13.884Z,3.60
2019-05-25T20:50:40.894Z,2.70
2019-05-25T20:53:07.892Z,3.00
2019-05-25T20:55:33.940Z,3.00
2019-05-25T20:58:00.031Z,2.87
2019-05-25T21:00:26.367Z,2.77
2019-05-25T21:03:05.407Z,2.80
2019-05-25T21:05:20.408Z,3.23
2019-05-25T21:07:46.791Z,3.97
2019-05-25T21:10:13.988Z,2.80
2019-05-25T21:12:40.372Z,3.20
2019-05-25T21:15:07.692Z,3.17
2019-05-25T21:17:33.744Z,3.10
2019-05-25T21:19:59.798Z,2.90
2019-05-25T21:22:26.264Z,2.67
2019-05-25T21:24:52.311Z,2.80
2019-05-25T21:27:19.177Z,2.70
2019-05-25T21:29:45.638Z,2.90
2019-05-25T21:32:11.676Z,3.10
2019-05-25T21:34:38.061Z,3.07
2019-05-25T21:37:04.802Z,2.90
2019-05-25T21:39:30.872Z,2.73
2019-05-25T21:41:56.968Z,2.40
2019-05-25T21:44:23.380Z,3.07
2019-05-25T21:46:49.424Z,2.83
2019-05-25T21:49:16.140Z,2.73
2019-05-25T21:51:42.228Z,2.63
2019-05-25T21:54:08.647Z,3.10
2019-05-25T21:56:34.732Z,2.90
2019-05-25T21:59:01.972Z,3.17
2019-05-25T22:01:29.144Z,2.80
2019-05-25T22:03:55.253Z,2.53
2019-05-25T22:06:24.597Z,2.97
2019-05-25T22:08:49.955Z,2.60
2019-05-25T22:11:16.046Z,2.90
2019-05-25T22:13:42.092Z,2.70
2019-05-25T22:16:08.182Z,2.60
2019-05-25T22:18:34.560Z,2.67
2019-05-25T22:21:00.988Z,2.90
2019-05-25T22:23:27.036Z,3.13
2019-05-25T22:25:53.085Z,2.70
2019-05-25T22:28:19.468Z,2.90
2019-05-25T22:30:45.880Z,2.87
2019-05-25T22:33:12.228Z,3.00
2019-05-25T22:35:38.560Z,3.10
2019-05-25T22:38:04.987Z,2.47
2019-05-25T22:40:31.124Z,3.07
2019-05-25T22:42:57.177Z,2.90
2019-05-25T22:45:23.297Z,3.03
2019-05-25T22:47:49.340Z,3.70
2019-05-25T22:50:15.892Z,3.20
2019-05-25T22:52:42.025Z,2.50
2019-05-25T22:55:09.541Z,3.13
2019-05-25T22:57:35.638Z,2.60
2019-05-25T23:00:04.015Z,3.10
2019-05-25T23:02:30.604Z,2.97
2019-05-25T23:04:57.491Z,3.40
2019-05-25T23:07:23.834Z,3.03
2019-05-25T23:09:50.108Z,3.33
2019-05-25T23:12:16.523Z,2.30
2019-05-25T23:14:42.925Z,2.60
2019-05-25T23:17:08.972Z,2.90
2019-05-25T23:19:35.026Z,3.10
2019-05-25T23:22:01.100Z,2.90
2019-05-25T23:24:27.149Z,2.93
2019-05-25T23:26:53.537Z,3.27
2019-05-25T23:29:19.580Z,2.70
2019-05-25T23:31:45.670Z,3.13
2019-05-25T23:34:11.727Z,3.20
2019-05-25T23:36:37.808Z,3.30
2019-05-25T23:39:05.435Z,3.03
2019-05-25T23:41:31.844Z,2.67
2019-05-25T23:43:59.948Z,3.03
2019-05-25T23:46:26.836Z,2.80
2019-05-25T23:48:53.268Z,2.80
2019-05-25T23:51:19.364Z,3.10
2019-05-25T23:53:45.554Z,3.37
2019-05-25T23:56:11.600Z,3.00
2019-05-25T23:58:37.689Z,2.43
